Time;durP1;ratioP1;P1;durP2;ratioP2;P2;SDS_P1;SDS_P2;PMS_P1;PMS_P2;Temp;Humidity;BMP_temperature;BMP_pressure;BME280_temperature;BME280_humidity;BME280_pressure;Samples;Min_cycle;Max_cycle;Signal;HPM_P1;HPM_P2
2021/06/23 00:01:44;;;;;;;1.07;0.97;;;;;;;15.25;88.64;101222.97;5092879;28;20464;-72
2021/06/23 00:04:11;;;;;;;1.33;1.13;;;;;;;15.05;89.43;101213.44;5092878;28;20447;-72
2021/06/23 00:06:37;;;;;;;1.23;1.13;;;;;;;15.08;89.94;101214.72;5093751;28;20440;-72
2021/06/23 00:09:05;;;;;;;1.77;1.30;;;;;;;15.10;90.07;101217.94;5096679;28;20463;-72
2021/06/23 00:11:38;;;;;;;2.20;1.23;;;;;;;15.17;89.51;101215.53;5096314;28;20504;-72
2021/06/23 00:14:06;;;;;;;1.00;0.93;;;;;;;15.09;89.71;101208.94;5096614;28;20444;-72
2021/06/23 00:16:32;;;;;;;2.27;1.00;;;;;;;15.14;87.46;101205.28;5096517;28;20440;-72
2021/06/23 00:18:59;;;;;;;2.57;1.13;;;;;;;15.11;85.34;101192.25;5096074;28;21020;-72
2021/06/23 00:21:26;;;;;;;2.43;1.20;;;;;;;15.06;86.35;101201.41;5096336;28;20464;-72
2021/06/23 00:23:52;;;;;;;1.73;1.10;;;;;;;14.92;86.22;101197.16;5096400;28;20455;-72
2021/06/23 00:26:18;;;;;;;1.47;1.27;;;;;;;14.74;86.15;101205.28;5096014;28;20952;-72
2021/06/23 00:28:45;;;;;;;2.27;1.23;;;;;;;14.70;87.00;101203.47;5096293;28;20444;-72
2021/06/23 00:31:13;;;;;;;2.77;1.50;;;;;;;14.69;88.45;101208.13;5096136;28;20463;-72
2021/06/23 00:33:40;;;;;;;2.50;1.30;;;;;;;14.71;88.77;101207.84;5096189;28;20448;-72
2021/06/23 00:36:07;;;;;;;1.07;0.97;;;;;;;14.64;89.61;101211.00;5096172;28;20475;-73
2021/06/23 00:38:33;;;;;;;0.70;0.70;;;;;;;14.66;90.04;101210.69;5095740;28;20448;-72
2021/06/23 00:41:00;;;;;;;1.80;1.20;;;;;;;14.69;89.35;101199.94;5096046;28;20470;-72
2021/06/23 00:43:27;;;;;;;2.10;1.47;;;;;;;14.67;86.61;101210.38;5095977;28;20448;-69
2021/06/23 00:45:54;;;;;;;1.93;1.33;;;;;;;14.63;86.36;101210.19;5095989;28;20451;-70
2021/06/23 00:48:27;;;;;;;1.23;1.10;;;;;;;14.69;86.41;101202.66;5103190;28;20455;-72
2021/06/23 00:50:55;;;;;;;3.17;1.20;;;;;;;14.60;88.67;101213.53;5095924;28;20479;-72
2021/06/23 00:53:22;;;;;;;1.57;1.30;;;;;;;14.55;89.87;101218.31;5095435;28;20963;-72
2021/06/23 00:55:52;;;;;;;1.17;1.07;;;;;;;14.56;90.05;101231.63;5095805;28;20436;-72
2021/06/23 00:58:19;;;;;;;1.50;1.27;;;;;;;14.52;90.39;101235.28;5095452;28;20901;-72
2021/06/23 01:00:46;;;;;;;3.73;1.57;;;;;;;14.56;90.38;101234.34;5095611;28;20847;-72
2021/06/23 01:03:13;;;;;;;2.10;1.40;;;;;;;14.61;89.74;101242.44;5095587;28;20443;-72
2021/06/23 01:05:42;;;;;;;1.37;1.10;;;;;;;14.60;90.02;101245.44;5095682;28;20440;-72
2021/06/23 01:08:10;;;;;;;1.23;1.13;;;;;;;14.64;89.90;101251.88;5095519;28;20451;-72
2021/06/23 01:10:37;;;;;;;2.63;1.17;;;;;;;14.62;90.12;101254.13;5095232;28;20437;-72
2021/06/23 01:13:33;;;;;;;1.70;1.10;;;;;;;14.64;90.73;101243.72;5095149;28;20955;-72
2021/06/23 01:16:02;;;;;;;1.70;1.30;;;;;;;14.56;90.73;101236.28;5088627;28;20509;-72
2021/06/23 01:18:29;;;;;;;2.60;1.33;;;;;;;14.54;90.80;101239.31;5094811;28;20514;-72
2021/06/23 01:20:57;;;;;;;1.60;1.23;;;;;;;14.50;90.98;101243.00;5095139;28;20491;-72
2021/06/23 01:23:25;;;;;;;1.53;1.43;;;;;;;14.62;90.12;101235.06;5095210;28;20444;-72
2021/06/23 01:25:52;;;;;;;2.10;1.13;;;;;;;14.60;89.90;101231.81;5095235;28;20469;-72
2021/06/23 01:28:19;;;;;;;1.43;1.30;;;;;;;14.42;90.65;101230.88;5095106;28;20445;-72
2021/06/23 01:30:45;;;;;;;2.90;1.43;;;;;;;14.39;91.09;101242.41;5095039;28;20437;-73
2021/06/23 01:33:13;;;;;;;1.63;1.07;;;;;;;14.49;89.50;101246.84;5094898;28;20511;-72
2021/06/23 01:35:40;;;;;;;1.70;1.27;;;;;;;14.35;86.86;101264.03;5094692;28;20509;-72
2021/06/23 01:38:06;;;;;;;1.83;1.10;;;;;;;14.26;87.08;101284.97;5094941;28;20440;-73
2021/06/23 01:40:34;;;;;;;2.30;1.30;;;;;;;14.24;86.48;101278.19;5094750;28;20480;-72
2021/06/23 01:43:01;;;;;;;3.23;2.03;;;;;;;14.30;85.62;101261.44;5094844;28;20452;-72
2021/06/23 01:45:27;;;;;;;4.23;1.50;;;;;;;14.29;87.12;101239.91;5094513;28;20437;-72
2021/06/23 01:47:54;;;;;;;1.33;1.17;;;;;;;14.26;89.01;101255.00;5094488;28;20810;-72
2021/06/23 01:50:21;;;;;;;1.13;1.07;;;;;;;14.19;90.88;101259.25;5094724;28;20452;-71
2021/06/23 01:52:48;;;;;;;2.10;1.20;;;;;;;14.28;90.29;101260.91;5094638;28;20535;-72
2021/06/23 01:55:27;;;;;;;2.97;1.20;;;;;;;14.31;90.13;101267.69;5094605;28;20440;-72
2021/06/23 01:58:00;;;;;;;1.37;1.10;;;;;;;14.20;90.87;101272.56;5094596;28;20434;-72
2021/06/23 02:00:33;;;;;;;2.27;1.40;;;;;;;14.21;90.97;101274.19;5094022;28;21000;-72
2021/06/23 02:03:09;;;;;;;1.83;1.20;;;;;;;14.26;90.24;101276.78;5094576;28;20429;-72
2021/06/23 02:05:43;;;;;;;1.60;1.50;;;;;;;14.33;90.29;101288.06;5094504;28;20427;-72
2021/06/23 02:08:19;;;;;;;1.60;1.20;;;;;;;14.21;90.91;101296.00;5094121;28;20966;-72
2021/06/23 02:11:14;;;;;;;1.70;1.10;;;;;;;14.19;91.57;101290.03;5100509;28;20447;-73
2021/06/23 02:14:23;;;;;;;1.30;1.20;;;;;;;14.20;91.43;101288.91;5094391;28;20432;-72
2021/06/23 02:16:50;;;;;;;3.57;1.93;;;;;;;14.25;90.95;101294.22;5076301;28;20463;-72
2021/06/23 02:19:17;;;;;;;2.00;1.23;;;;;;;14.37;90.24;101299.16;5094074;28;20481;-72
2021/06/23 02:21:44;;;;;;;1.03;1.00;;;;;;;14.34;90.57;101302.47;5094010;28;20468;-72
2021/06/23 02:24:11;;;;;;;1.47;0.90;;;;;;;14.38;89.95;101301.56;5094089;28;20453;-72
2021/06/23 02:26:38;;;;;;;2.27;1.20;;;;;;;14.42;89.77;101306.41;5094057;28;20448;-72
2021/06/23 02:29:07;;;;;;;1.47;1.37;;;;;;;14.41;89.84;101296.63;5094008;28;20441;-72
2021/06/23 02:31:37;;;;;;;2.40;1.00;;;;;;;14.31;90.57;101295.75;5093048;28;20469;-71
2021/06/23 02:34:07;;;;;;;2.97;1.80;;;;;;;14.15;91.42;101278.13;5093928;28;20538;-72
2021/06/23 02:36:34;;;;;;;2.13;1.93;;;;;;;14.30;90.87;101290.59;5093532;28;20937;-72
2021/06/23 02:39:01;;;;;;;4.33;1.37;;;;;;;14.29;90.92;101281.59;5093530;28;20967;-71
2021/06/23 02:41:27;;;;;;;2.20;1.37;;;;;;;14.26;90.78;101287.69;5093723;28;20468;-73
2021/06/23 02:43:54;;;;;;;1.63;1.33;;;;;;;14.28;89.40;101304.53;5093459;28;20436;-73
2021/06/23 02:46:22;;;;;;;1.50;1.33;;;;;;;14.20;87.53;101297.09;5093667;28;20451;-72
2021/06/23 02:48:51;;;;;;;2.70;1.43;;;;;;;14.14;87.12;101298.31;5093686;28;20448;-72
2021/06/23 02:51:20;;;;;;;2.43;1.80;;;;;;;14.05;87.40;101309.13;5093559;28;20459;-72
2021/06/23 02:53:48;;;;;;;2.07;1.40;;;;;;;14.09;88.66;101315.59;5093637;28;20452;-72
2021/06/23 02:56:16;;;;;;;2.40;1.53;;;;;;;14.02;90.90;101320.63;5093537;28;20464;-72
2021/06/23 02:58:44;;;;;;;1.83;1.40;;;;;;;14.07;92.16;101317.00;5093555;28;20439;-73
2021/06/23 03:01:11;;;;;;;1.70;1.60;;;;;;;14.14;92.33;101318.19;5093357;28;20492;-73
2021/06/23 03:03:40;;;;;;;2.87;1.63;;;;;;;14.21;91.76;101301.44;5093498;28;20471;-73
2021/06/23 03:06:07;;;;;;;2.70;1.90;;;;;;;14.11;92.61;101305.19;5093421;28;20452;-72
2021/06/23 03:08:34;;;;;;;1.77;1.63;;;;;;;14.19;92.32;101300.91;5093428;28;20436;-72
2021/06/23 03:11:00;;;;;;;3.40;2.40;;;;;;;14.13;92.55;101308.41;5093145;28;20483;-72
2021/06/23 03:13:27;;;;;;;2.20;1.80;;;;;;;14.13;92.71;101302.97;5093074;28;20460;-73
2021/06/23 03:15:54;;;;;;;2.60;1.37;;;;;;;14.20;92.27;101299.81;5093062;28;21008;-72
2021/06/23 03:18:20;;;;;;;1.70;1.40;;;;;;;14.23;92.32;101303.84;5092976;28;20447;-73
2021/06/23 03:20:49;;;;;;;1.70;1.30;;;;;;;14.30;92.22;101309.69;5093153;28;20502;-73
2021/06/23 03:23:15;;;;;;;2.37;1.30;;;;;;;14.36;91.32;101331.06;5093252;28;20439;-73
2021/06/23 03:25:42;;;;;;;1.53;1.37;;;;;;;14.39;91.13;101326.91;5092990;28;20448;-72
2021/06/23 03:28:08;;;;;;;3.10;2.20;;;;;;;14.39;91.61;101346.00;5093213;28;20440;-73
2021/06/23 03:30:35;;;;;;;1.80;1.50;;;;;;;14.44;91.34;101342.34;5093322;28;20490;-72
2021/06/23 03:33:01;;;;;;;1.10;1.00;;;;;;;14.50;91.33;101352.03;5093174;28;20441;-73
2021/06/23 03:35:28;;;;;;;1.30;1.20;;;;;;;14.53;90.53;101352.22;5093200;28;20440;-72
2021/06/23 03:37:56;;;;;;;2.33;1.60;;;;;;;14.53;90.92;101344.06;5093201;28;20437;-73
2021/06/23 03:40:24;;;;;;;2.17;1.23;;;;;;;14.49;91.34;101347.69;5093035;28;20487;-72
2021/06/23 03:42:51;;;;;;;2.57;1.90;;;;;;;14.54;90.75;101362.00;5096019;28;20456;-72
2021/06/23 03:45:18;;;;;;;2.47;1.50;;;;;;;14.49;91.87;101359.41;5096777;28;20440;-72
2021/06/23 03:47:45;;;;;;;2.13;1.60;;;;;;;14.40;91.28;101363.97;5096790;28;20964;-72
2021/06/23 03:50:14;;;;;;;3.37;1.43;;;;;;;14.38;91.47;101366.97;5097066;28;20870;-72
2021/06/23 03:52:40;;;;;;;2.17;1.97;;;;;;;14.32;91.00;101373.66;5096979;28;20627;-72
2021/06/23 03:55:19;;;;;;;1.93;1.73;;;;;;;14.34;90.85;101365.16;5096948;28;20436;-72
2021/06/23 03:57:46;;;;;;;1.90;1.73;;;;;;;14.31;90.82;101361.16;5097016;28;20485;-72
2021/06/23 04:00:13;;;;;;;2.67;2.13;;;;;;;14.30;90.49;101356.81;5101434;28;20451;-72
2021/06/23 04:02:40;;;;;;;5.43;2.10;;;;;;;14.35;90.17;101362.16;5098371;28;20457;-72
2021/06/23 04:05:08;;;;;;;4.07;1.90;;;;;;;14.42;89.21;101360.91;5096752;28;20456;-72
2021/06/23 04:07:34;;;;;;;3.97;2.03;;;;;;;14.36;89.83;101358.31;5096696;28;20443;-72
2021/06/23 04:10:00;;;;;;;14.20;2.50;;;;;;;14.34;91.04;101352.38;5096665;28;20444;-72
2021/06/23 04:12:28;;;;;;;2.80;1.90;;;;;;;14.36;91.85;101358.31;5096222;28;20468;-72
2021/06/23 04:14:55;;;;;;;1.73;1.57;;;;;;;14.39;92.46;101360.44;5096585;28;20448;-71
2021/06/23 04:17:21;;;;;;;1.83;1.57;;;;;;;14.51;92.46;101361.81;5096488;28;20444;-71
2021/06/23 04:19:48;;;;;;;5.07;1.50;;;;;;;14.57;92.37;101357.88;5096397;28;20514;-71
2021/06/23 04:22:14;;;;;;;1.97;1.60;;;;;;;14.57;91.53;101366.06;5096021;28;20849;-71
2021/06/23 04:24:41;;;;;;;2.00;1.73;;;;;;;14.43;92.00;101367.97;5096362;28;20451;-71
2021/06/23 04:27:08;;;;;;;3.37;2.03;;;;;;;14.48;92.25;101378.78;5095964;28;20813;-71
2021/06/23 04:29:35;;;;;;;2.60;1.67;;;;;;;14.50;93.54;101374.66;5095995;28;20444;-72
2021/06/23 04:32:02;;;;;;;3.00;2.40;;;;;;;14.61;92.64;101378.75;5096176;28;20456;-71
2021/06/23 04:34:28;;;;;;;1.87;1.77;;;;;;;14.69;92.45;101390.84;5096086;28;20437;-71
2021/06/23 04:36:55;;;;;;;3.10;2.10;;;;;;;14.71;92.57;101388.63;5095703;28;20960;-71
2021/06/23 04:39:21;;;;;;;2.20;2.00;;;;;;;14.73;92.78;101394.56;5095993;28;20439;-72
2021/06/23 04:41:48;;;;;;;1.93;1.73;;;;;;;14.69;93.39;101403.66;5095887;28;20492;-71
2021/06/23 04:44:14;;;;;;;5.13;1.97;;;;;;;14.76;93.11;101399.41;5095628;28;20994;-72
2021/06/23 04:46:42;;;;;;;2.30;1.47;;;;;;;14.85;92.97;101408.44;5095956;28;20436;-72
2021/06/23 04:49:08;;;;;;;2.53;1.80;;;;;;;14.87;92.87;101403.50;5095863;28;20436;-72
2021/06/23 04:51:35;;;;;;;12.83;2.33;;;;;;;14.98;92.61;101404.06;5095778;28;20837;-72
2021/06/23 04:54:01;;;;;;;2.00;1.80;;;;;;;15.08;92.97;101403.78;5094459;28;20961;-72
2021/06/23 04:56:27;;;;;;;2.27;1.80;;;;;;;15.14;92.49;101405.28;5095711;28;20447;-73
2021/06/23 04:58:54;;;;;;;4.97;2.47;;;;;;;15.25;91.96;101403.09;5095725;28;20440;-73
2021/06/23 05:01:20;;;;;;;3.07;2.00;;;;;;;15.36;91.90;101404.47;5095487;28;20480;-73
2021/06/23 05:03:48;;;;;;;3.43;1.80;;;;;;;15.51;90.43;101408.72;5095629;28;20447;-71
2021/06/23 05:06:15;;;;;;;4.27;2.00;;;;;;;15.61;88.50;101411.16;5095282;28;21011;-70
2021/06/23 05:08:41;;;;;;;2.40;2.07;;;;;;;15.74;87.73;101420.41;5095574;28;20440;-71
2021/06/23 05:11:08;;;;;;;2.13;1.90;;;;;;;15.86;89.06;101419.81;5095185;28;20495;-71
2021/06/23 05:13:35;;;;;;;3.37;2.50;;;;;;;15.98;89.10;101422.75;5095413;28;20455;-71
2021/06/23 05:16:03;;;;;;;2.80;2.30;;;;;;;16.05;88.73;101428.53;5095399;28;20546;-71
2021/06/23 05:18:30;;;;;;;1.80;1.50;;;;;;;16.16;88.36;101426.34;5095405;28;20447;-71
2021/06/23 05:20:59;;;;;;;2.10;1.67;;;;;;;16.32;87.70;101426.69;5095240;28;20534;-71
2021/06/23 05:23:26;;;;;;;2.03;1.70;;;;;;;16.36;87.23;101420.25;5095278;28;20451;-71
2021/06/23 05:25:52;;;;;;;1.67;1.43;;;;;;;16.45;87.21;101422.19;5095231;28;20440;-71
2021/06/23 05:28:19;;;;;;;3.70;2.43;;;;;;;16.56;87.04;101415.31;5095302;28;20440;-71
2021/06/23 05:30:45;;;;;;;3.53;2.00;;;;;;;16.63;86.09;101415.59;5095102;28;20439;-71
2021/06/23 05:33:12;;;;;;;10.00;2.10;;;;;;;16.71;85.84;101417.56;5095121;28;20428;-71
2021/06/23 05:35:39;;;;;;;1.70;1.57;;;;;;;16.82;85.66;101413.41;5095124;28;20447;-71
2021/06/23 05:38:06;;;;;;;1.33;1.23;;;;;;;16.92;85.06;101414.19;5094965;28;20449;-71
2021/06/23 05:40:33;;;;;;;3.27;2.10;;;;;;;16.99;85.63;101422.72;5094879;28;20473;-71
2021/06/23 05:42:59;;;;;;;2.10;1.67;;;;;;;17.08;85.16;101420.75;5094964;28;20804;-71
2021/06/23 05:45:26;;;;;;;1.97;1.43;;;;;;;17.21;84.72;101424.44;5094984;28;20445;-71
2021/06/23 05:47:52;;;;;;;2.57;1.73;;;;;;;17.31;84.81;101432.31;5094892;28;20451;-71
2021/06/23 05:50:19;;;;;;;1.93;1.67;;;;;;;17.38;84.57;101427.94;5094383;28;20945;-71
2021/06/23 05:52:45;;;;;;;1.50;1.40;;;;;;;17.49;84.18;101435.84;5094702;28;20488;-71
2021/06/23 05:55:20;;;;;;;2.80;1.87;;;;;;;17.58;82.68;101440.16;5101585;28;20441;-71
2021/06/23 05:57:50;;;;;;;2.53;1.90;;;;;;;17.62;81.64;101440.31;5094670;28;20485;-72
2021/06/23 06:00:17;;;;;;;1.57;1.47;;;;;;;17.64;81.11;101438.03;5094474;28;20436;-71
2021/06/23 06:02:43;;;;;;;2.30;1.93;;;;;;;17.61;81.99;101461.41;5094101;28;20969;-72
2021/06/23 06:05:11;;;;;;;3.07;1.87;;;;;;;17.68;81.94;101457.38;5094357;28;20445;-70
2021/06/23 06:07:37;;;;;;;1.60;1.33;;;;;;;17.76;81.85;101457.38;5094118;28;20952;-67
2021/06/23 06:10:04;;;;;;;3.07;1.77;;;;;;;17.80;81.98;101466.56;5094345;28;20440;-70
2021/06/23 06:12:32;;;;;;;1.80;1.63;;;;;;;17.86;81.78;101478.13;5093872;28;20476;-73
2021/06/23 06:14:58;;;;;;;2.17;1.67;;;;;;;17.90;81.69;101477.13;5094410;28;20817;-72
2021/06/23 06:17:25;;;;;;;3.57;1.97;;;;;;;17.98;81.17;101483.72;5094228;28;20447;-73
2021/06/23 06:19:51;;;;;;;2.07;1.47;;;;;;;17.99;81.14;101484.53;5093935;28;20947;-73
2021/06/23 06:22:18;;;;;;;2.97;1.77;;;;;;;17.90;81.38;101484.56;5093945;28;20480;-73
2021/06/23 06:24:44;;;;;;;2.23;1.73;;;;;;;17.90;81.30;101471.66;5094169;28;20448;-73
2021/06/23 06:27:11;;;;;;;1.57;1.43;;;;;;;18.01;81.47;101463.84;5093786;28;20863;-72
2021/06/23 06:29:39;;;;;;;2.20;1.70;;;;;;;18.08;81.75;101466.09;5094014;28;20436;-72
2021/06/23 06:32:06;;;;;;;1.77;1.40;;;;;;;18.16;81.42;101473.47;5093889;28;20843;-72
2021/06/23 06:34:33;;;;;;;1.40;1.30;;;;;;;18.28;81.78;101478.25;5094039;28;20437;-73
2021/06/23 06:36:59;;;;;;;1.63;1.27;;;;;;;18.32;81.80;101476.44;5093895;28;20459;-72
2021/06/23 06:39:25;;;;;;;3.10;1.73;;;;;;;18.39;81.69;101474.00;5093504;28;20956;-73
2021/06/23 06:41:52;;;;;;;2.03;1.33;;;;;;;18.45;80.91;101475.41;5093634;28;20566;-72
2021/06/23 06:44:18;;;;;;;4.43;1.50;;;;;;;18.54;80.12;101473.41;5093757;28;20447;-72
2021/06/23 06:46:46;;;;;;;2.07;1.90;;;;;;;18.51;79.63;101478.78;5093753;28;20443;-72
2021/06/23 06:49:12;;;;;;;3.83;1.43;;;;;;;18.58;79.35;101487.25;5093306;28;20816;-73
2021/06/23 06:51:39;;;;;;;3.63;1.60;;;;;;;18.60;79.03;101494.03;5093317;28;20980;-73
2021/06/23 06:54:05;;;;;;;2.60;1.20;;;;;;;18.46;78.42;101495.41;5093326;28;20937;-73
2021/06/23 06:56:32;;;;;;;3.60;1.83;;;;;;;18.29;79.95;101486.16;5093310;28;20960;-72
2021/06/23 06:58:58;;;;;;;1.83;1.53;;;;;;;18.34;79.64;101491.44;5093619;28;20440;-71
2021/06/23 07:01:25;;;;;;;2.20;1.53;;;;;;;18.43;80.17;101491.41;5093432;28;20494;-71
2021/06/23 07:03:53;;;;;;;3.90;1.30;;;;;;;18.54;79.46;101491.81;5093555;28;20444;-71
2021/06/23 07:06:19;;;;;;;1.53;1.20;;;;;;;18.65;79.01;101484.81;5093150;28;20824;-72
2021/06/23 07:08:46;;;;;;;1.43;0.93;;;;;;;18.69;78.53;101487.69;5093495;28;20532;-71
2021/06/23 07:11:12;;;;;;;2.40;1.17;;;;;;;18.58;76.13;101487.25;5092909;28;20479;-71
2021/06/23 07:13:39;;;;;;;2.10;1.70;;;;;;;18.58;77.93;101479.03;5093147;28;20451;-71
2021/06/23 07:16:05;;;;;;;6.23;1.40;;;;;;;18.64;76.42;101483.22;5092804;28;20815;-71
2021/06/23 07:18:32;;;;;;;1.13;1.00;;;;;;;18.73;74.87;101483.19;5093336;28;20894;-71
2021/06/23 07:21:00;;;;;;;1.10;1.00;;;;;;;18.73;75.95;101488.66;5092909;28;21011;-71
2021/06/23 07:23:26;;;;;;;6.13;1.47;;;;;;;18.87;77.60;101506.47;5093294;28;20444;-70
2021/06/23 07:25:53;;;;;;;2.43;1.17;;;;;;;18.98;76.34;101501.38;5093376;28;20447;-71
2021/06/23 07:28:28;;;;;;;3.53;0.90;;;;;;;19.12;76.98;101501.91;5093273;28;20447;-72
2021/06/23 07:30:55;;;;;;;1.40;1.30;;;;;;;19.21;75.03;101501.81;5093263;28;20467;-71
2021/06/23 07:33:21;;;;;;;1.73;1.43;;;;;;;19.30;73.68;101501.72;5093256;28;20442;-71
2021/06/23 07:38:45;;;;;;;6.63;1.20;;;;;;;19.35;73.06;101498.81;5050758;28;20446;-71
2021/06/23 07:41:11;;;;;;;2.43;0.77;;;;;;;19.42;73.59;101493.53;5082350;28;20524;-72
2021/06/23 07:43:38;;;;;;;4.93;1.00;;;;;;;19.42;72.89;101499.84;5093150;28;20881;-71
2021/06/23 07:46:06;;;;;;;3.63;1.47;;;;;;;19.43;72.51;101495.13;5093122;28;20475;-72
2021/06/23 07:48:40;;;;;;;1.67;1.23;;;;;;;19.34;72.81;101503.47;5093208;28;20451;-72
2021/06/23 07:51:10;;;;;;;1.60;1.33;;;;;;;19.35;72.96;101499.59;5092981;28;20447;-70
2021/06/23 07:53:55;;;;;;;1.40;1.30;;;;;;;19.37;72.68;101500.06;5099627;28;21047;-70
2021/06/23 07:56:27;;;;;;;4.30;1.13;;;;;;;19.42;72.66;101505.34;5093045;28;20436;-71
2021/06/23 08:10:07;;;;;;;1.77;1.10;;;;;;;19.69;72.18;101508.66;5070271;28;20479;-70
2021/06/23 08:12:42;;;;;;;2.90;1.30;;;;;;;19.90;72.88;101503.88;5069987;28;20488;-71
2021/06/23 08:15:10;;;;;;;4.27;1.47;;;;;;;20.12;72.00;101496.34;5081534;28;20459;-70
2021/06/23 08:17:36;;;;;;;0.80;0.80;;;;;;;20.15;70.55;101492.91;5092794;28;20450;-70
2021/06/23 08:20:04;;;;;;;1.80;1.00;;;;;;;20.24;69.27;101495.53;5092710;28;20447;-70
2021/06/23 08:22:30;;;;;;;1.47;1.10;;;;;;;20.29;69.64;101498.88;5092559;28;20484;-70
2021/06/23 08:24:57;;;;;;;1.93;1.43;;;;;;;20.28;68.51;101502.75;5092791;28;20447;-72
2021/06/23 08:27:23;;;;;;;2.80;1.30;;;;;;;20.41;70.01;101487.84;5092695;28;20440;-72
2021/06/23 08:29:51;;;;;;;2.50;1.70;;;;;;;20.50;70.21;101493.25;5094343;28;20941;-73
2021/06/23 08:32:17;;;;;;;2.10;1.10;;;;;;;20.77;69.97;101499.97;5095519;28;20452;-72
2021/06/23 08:34:44;;;;;;;3.13;1.53;;;;;;;20.89;67.34;101499.13;5095555;28;20468;-73
2021/06/23 08:37:10;;;;;;;5.50;1.60;;;;;;;20.91;67.82;101503.16;5095527;28;20451;-73
2021/06/23 08:39:37;;;;;;;2.77;1.37;;;;;;;20.97;66.82;101502.91;5095512;28;20443;-73
2021/06/23 08:42:04;;;;;;;1.67;1.50;;;;;;;20.96;66.86;101496.59;5095231;28;20492;-73
2021/06/23 08:44:31;;;;;;;7.77;1.63;;;;;;;20.86;66.70;101497.88;5095383;28;20440;-73
2021/06/23 08:47:01;;;;;;;5.10;1.33;;;;;;;20.82;65.93;101498.94;5095020;28;20817;-72
2021/06/23 08:49:28;;;;;;;1.97;1.30;;;;;;;20.86;67.24;101508.09;5095255;28;20440;-73
2021/06/23 08:51:55;;;;;;;1.37;1.27;;;;;;;20.85;65.91;101507.31;5095153;28;20984;-73
2021/06/23 08:54:22;;;;;;;4.43;1.50;;;;;;;20.91;66.94;101513.38;5095429;28;20436;-73
2021/06/23 08:56:49;;;;;;;1.40;1.30;;;;;;;20.83;66.38;101512.34;5095330;28;20807;-73
2021/06/23 08:59:15;;;;;;;2.37;1.10;;;;;;;20.92;65.99;101515.75;5094800;28;20433;-73
2021/06/23 09:01:42;;;;;;;1.10;0.97;;;;;;;21.06;67.19;101518.13;5094931;28;20489;-73
2021/06/23 09:04:12;;;;;;;1.63;1.30;;;;;;;21.06;64.22;101526.41;5095028;28;20432;-73
2021/06/23 09:06:47;;;;;;;7.40;1.53;;;;;;;21.19;63.19;101529.91;5095041;28;20499;-71
2021/06/23 09:09:25;;;;;;;4.67;1.30;;;;;;;21.40;64.90;101521.47;5094569;28;20929;-72
2021/06/23 09:11:53;;;;;;;2.67;1.60;;;;;;;21.54;64.21;101515.56;5094587;28;20468;-71
2021/06/23 09:14:20;;;;;;;2.80;1.50;;;;;;;21.71;60.54;101523.50;5094962;28;20806;-71
2021/06/23 09:17:08;;;;;;;3.20;1.63;;;;;;;21.78;56.52;101540.25;5094827;28;20437;-71
2021/06/23 09:19:38;;;;;;;3.00;1.60;;;;;;;21.83;58.72;101534.47;5094724;28;20445;-71
2021/06/23 09:22:06;;;;;;;4.50;1.40;;;;;;;21.76;60.50;101537.03;5094508;28;20480;-71
2021/06/23 09:24:37;;;;;;;1.70;1.30;;;;;;;21.84;60.02;101533.31;5094699;28;20444;-71
2021/06/23 09:27:18;;;;;;;3.27;1.33;;;;;;;21.73;60.62;101528.66;5094676;28;20448;-71
2021/06/23 09:29:45;;;;;;;3.53;1.30;;;;;;;21.74;60.94;101522.81;5094653;28;20527;-71
2021/06/23 09:32:11;;;;;;;2.23;1.37;;;;;;;21.62;60.57;101526.41;5094125;28;20466;-71
2021/06/23 09:34:42;;;;;;;3.77;1.20;;;;;;;21.60;61.20;101527.91;5094470;28;20455;-71
2021/06/23 09:37:25;;;;;;;1.77;1.50;;;;;;;21.53;59.74;101528.53;5094380;28;20432;-71
2021/06/23 09:40:09;;;;;;;1.40;1.10;;;;;;;21.52;60.72;101531.66;5093930;28;20436;-71
2021/06/23 09:42:38;;;;;;;1.50;1.33;;;;;;;21.53;59.64;101533.25;5094225;28;20490;-71
2021/06/23 09:45:07;;;;;;;2.00;1.50;;;;;;;21.61;60.38;101538.63;5094044;28;20433;-71
2021/06/23 09:47:35;;;;;;;2.97;1.30;;;;;;;21.60;60.08;101539.78;5094167;28;20448;-71
2021/06/23 09:50:04;;;;;;;2.10;1.20;;;;;;;21.69;60.00;101541.53;5093904;28;20452;-71
2021/06/23 09:52:31;;;;;;;1.80;1.43;;;;;;;21.84;59.30;101538.03;5100514;28;20464;-72
2021/06/23 09:54:59;;;;;;;3.93;1.80;;;;;;;21.94;58.52;101545.75;5094202;28;20814;-71
2021/06/23 09:57:26;;;;;;;1.87;1.50;;;;;;;21.95;56.27;101560.34;5093980;28;20444;-71
2021/06/23 09:59:55;;;;;;;2.50;1.57;;;;;;;21.98;57.13;101548.63;5093619;28;20445;-72
2021/06/23 10:02:24;;;;;;;2.47;2.27;;;;;;;21.95;57.35;101550.13;5093576;28;20480;-71
2021/06/23 10:04:51;;;;;;;1.90;1.30;;;;;;;21.83;58.06;101553.78;5093884;28;20459;-72
2021/06/23 10:07:41;;;;;;;2.27;1.37;;;;;;;21.72;58.10;101551.88;5093672;28;20440;-73
2021/06/23 10:10:08;;;;;;;3.90;1.60;;;;;;;21.57;57.80;101550.69;5093694;28;20463;-74
2021/06/23 10:12:35;;;;;;;2.93;1.50;;;;;;;21.64;58.70;101548.13;5093391;28;20472;-72
2021/06/23 10:15:03;;;;;;;6.13;1.47;;;;;;;21.72;59.13;101549.91;5093580;28;20471;-72
2021/06/23 10:17:29;;;;;;;2.17;1.50;;;;;;;21.90;58.09;101542.09;5093548;28;20444;-72
2021/06/23 10:19:57;;;;;;;1.93;1.30;;;;;;;21.84;57.35;101538.81;5093255;28;20819;-71
2021/06/23 10:22:24;;;;;;;3.90;1.50;;;;;;;21.74;58.11;101541.31;5093297;28;20501;-70
2021/06/23 10:24:54;;;;;;;2.10;1.30;;;;;;;21.72;58.11;101541.66;5093936;28;20529;-73
2021/06/23 10:27:23;;;;;;;1.70;1.40;;;;;;;21.91;59.98;101540.94;5093712;28;20425;-73
2021/06/23 10:29:53;;;;;;;3.20;1.73;;;;;;;22.00;59.92;101546.28;5093210;28;20946;-72
2021/06/23 10:32:19;;;;;;;2.53;1.47;;;;;;;22.09;58.89;101538.63;5093527;28;20456;-72
2021/06/23 10:34:46;;;;;;;2.63;1.60;;;;;;;21.88;57.40;101545.22;5092969;28;20960;-72
2021/06/23 10:37:14;;;;;;;2.87;1.47;;;;;;;21.69;58.97;101539.59;5093224;28;20444;-72
2021/06/23 10:39:42;;;;;;;2.80;1.50;;;;;;;21.61;58.72;101546.88;5093168;28;20444;-73
2021/06/23 10:42:10;;;;;;;2.70;1.30;;;;;;;21.61;59.08;101559.88;5093238;28;20503;-73
2021/06/23 10:44:40;;;;;;;2.60;1.93;;;;;;;21.59;59.32;101559.41;5093166;28;20836;-73
2021/06/23 10:47:10;;;;;;;4.33;1.80;;;;;;;21.76;60.16;101572.09;5093170;28;20428;-72
2021/06/23 10:49:45;;;;;;;7.13;1.30;;;;;;;21.84;59.75;101574.69;5093434;28;20476;-71
2021/06/23 10:52:33;;;;;;;2.70;1.47;;;;;;;21.81;61.17;101574.59;5092263;28;20543;-74
2021/06/23 10:55:00;;;;;;;2.13;1.40;;;;;;;21.67;59.42;101575.78;5083940;28;20535;-71
2021/06/23 10:57:29;;;;;;;3.93;2.00;;;;;;;21.38;60.87;101588.00;5092969;28;20443;-71
2021/06/23 10:59:57;;;;;;;3.47;1.33;;;;;;;21.22;62.41;101584.34;5092898;28;20476;-71
2021/06/23 11:02:34;;;;;;;4.13;1.67;;;;;;;20.96;63.54;101586.69;5092674;28;20485;-71
2021/06/23 11:05:12;;;;;;;2.30;1.40;;;;;;;20.83;62.61;101589.47;5092578;28;21001;-71
2021/06/23 11:07:41;;;;;;;1.30;1.20;;;;;;;20.77;64.42;101598.31;5092879;28;20424;-71
2021/06/23 11:10:30;;;;;;;6.63;1.90;;;;;;;20.39;69.46;101596.66;5092652;28;20535;-71
2021/06/23 11:13:00;;;;;;;2.17;1.97;;;;;;;20.03;69.26;101602.91;5092832;28;20469;-71
2021/06/23 11:15:36;;;;;;;1.43;1.33;;;;;;;19.73;71.23;101603.03;5092716;28;20867;-71
2021/06/23 11:18:20;;;;;;;2.37;1.93;;;;;;;19.52;73.15;101600.31;5092760;28;20429;-71
2021/06/23 11:20:48;;;;;;;4.23;1.97;;;;;;;19.34;75.50;101604.31;5092656;28;20508;-71
2021/06/23 11:23:40;;;;;;;1.90;1.70;;;;;;;19.24;75.46;101597.28;5092480;28;20485;-69
2021/06/23 11:26:06;;;;;;;3.30;2.20;;;;;;;19.16;76.30;101606.41;5092614;28;20436;-73
2021/06/23 11:28:34;;;;;;;2.17;1.80;;;;;;;19.19;76.48;101610.44;5092603;28;20444;-73
2021/06/23 11:31:07;;;;;;;5.30;1.87;;;;;;;19.22;73.83;101605.09;5092572;28;20463;-73
2021/06/23 11:33:44;;;;;;;6.63;2.53;;;;;;;19.18;74.39;101609.63;5092282;28;21140;-73
2021/06/23 11:36:15;;;;;;;4.00;2.50;;;;;;;19.26;72.92;101608.78;5092195;28;20955;-72
2021/06/23 11:38:42;;;;;;;4.93;1.80;;;;;;;19.37;74.93;101600.91;5092280;28;20910;-73
2021/06/23 11:41:10;;;;;;;2.20;1.70;;;;;;;19.41;73.35;101602.66;5092410;28;20460;-73
2021/06/23 11:43:38;;;;;;;4.50;2.10;;;;;;;19.47;72.12;101596.94;5092388;28;20483;-73
2021/06/23 11:46:05;;;;;;;3.10;1.83;;;;;;;19.58;69.91;101600.91;5092238;28;20809;-73